Terminal Aerodrome Forecast
Issued by NWS Mt. Holly, NJ

Home | Current Version | Previous Version | Text Only | Print | Product List | Glossary On
Versions: 1 2 3 4 5 6 7 8 9 10 11 12 13 14 15 16 17 18 19 20 21
560
FTUS41 KPHI 071314 AAA
TAFABE
TAF AMD
KABE 071314Z 0713/0812 27004KT 3SM -DZ BR FEW004 OVC011
      TEMPO 0713/0715 6SM BR OVC005
     FM071500 29004KT 6SM BR OVC011
     FM071600 31005KT P6SM SCT008 OVC015
     FM071800 28007KT P6SM BKN020
     FM071900 29009KT P6SM SCT025 BKN120
     FM072300 28003KT P6SM BKN120=

USA.gov is the U.S. government's official web portal to all federal, state and local government web resources and services.